sensor_id;sensor_type;location;lat;lon;timestamp;P1;durP1;ratioP1;P2;durP2;ratioP2
56752;SDS011;42627;42.646;23.642;2023-04-15T00:01:28;9.75;;;3.33;;
56752;SDS011;42627;42.646;23.642;2023-04-15T00:03:49;9.90;;;3.38;;
56752;SDS011;42627;42.646;23.642;2023-04-15T00:05:51;10.40;;;3.17;;
56752;SDS011;42627;42.646;23.642;2023-04-15T00:07:52;11.40;;;3.80;;
56752;SDS011;42627;42.646;23.642;2023-04-15T00:09:54;6.45;;;2.97;;
56752;SDS011;42627;42.646;23.642;2023-04-15T00:22:32;6.50;;;2.83;;
56752;SDS011;42627;42.646;23.642;2023-04-15T00:33:50;6.60;;;3.20;;
56752;SDS011;42627;42.646;23.642;2023-04-15T00:35:51;5.45;;;2.55;;
56752;SDS011;42627;42.646;23.642;2023-04-15T00:37:52;7.97;;;2.72;;
56752;SDS011;42627;42.646;23.642;2023-04-15T00:39:53;36.20;;;10.73;;
56752;SDS011;42627;42.646;23.642;2023-04-15T00:41:55;50.00;;;17.15;;
56752;SDS011;42627;42.646;23.642;2023-04-15T00:43:57;13.50;;;4.85;;
56752;SDS011;42627;42.646;23.642;2023-04-15T00:45:59;13.90;;;4.63;;
56752;SDS011;42627;42.646;23.642;2023-04-15T00:48:07;24.45;;;9.40;;
56752;SDS011;42627;42.646;23.642;2023-04-15T00:50:09;8.50;;;4.53;;
56752;SDS011;42627;42.646;23.642;2023-04-15T00:52:10;7.45;;;3.08;;
56752;SDS011;42627;42.646;23.642;2023-04-15T00:54:12;7.63;;;3.35;;
56752;SDS011;42627;42.646;23.642;2023-04-15T00:56:13;10.05;;;4.40;;
56752;SDS011;42627;42.646;23.642;2023-04-15T01:00:52;8.80;;;4.90;;
56752;SDS011;42627;42.646;23.642;2023-04-15T01:02:58;10.32;;;5.05;;
56752;SDS011;42627;42.646;23.642;2023-04-15T01:05:00;13.63;;;6.00;;
56752;SDS011;42627;42.646;23.642;2023-04-15T01:07:02;6.82;;;3.97;;
56752;SDS011;42627;42.646;23.642;2023-04-15T01:09:03;5.85;;;2.97;;
56752;SDS011;42627;42.646;23.642;2023-04-15T01:11:04;7.97;;;3.65;;
56752;SDS011;42627;42.646;23.642;2023-04-15T01:13:05;7.30;;;3.22;;
56752;SDS011;42627;42.646;23.642;2023-04-15T01:19:27;6.03;;;2.80;;
56752;SDS011;42627;42.646;23.642;2023-04-15T01:21:29;6.25;;;2.75;;
56752;SDS011;42627;42.646;23.642;2023-04-15T01:23:30;6.90;;;2.63;;
56752;SDS011;42627;42.646;23.642;2023-04-15T01:25:32;4.68;;;2.08;;
56752;SDS011;42627;42.646;23.642;2023-04-15T01:30:07;4.70;;;2.00;;
56752;SDS011;42627;42.646;23.642;2023-04-15T01:32:27;6.07;;;2.20;;
56752;SDS011;42627;42.646;23.642;2023-04-15T01:34:30;8.10;;;3.00;;
56752;SDS011;42627;42.646;23.642;2023-04-15T01:36:31;6.95;;;3.20;;
56752;SDS011;42627;42.646;23.642;2023-04-15T01:38:32;5.07;;;2.13;;
56752;SDS011;42627;42.646;23.642;2023-04-15T01:40:33;7.18;;;3.03;;
56752;SDS011;42627;42.646;23.642;2023-04-15T01:42:35;6.47;;;3.03;;
56752;SDS011;42627;42.646;23.642;2023-04-15T01:44:36;5.25;;;2.80;;
56752;SDS011;42627;42.646;23.642;2023-04-15T01:48:48;6.25;;;2.30;;
56752;SDS011;42627;42.646;23.642;2023-04-15T01:50:51;7.63;;;3.10;;
56752;SDS011;42627;42.646;23.642;2023-04-15T01:52:52;2.92;;;1.70;;
56752;SDS011;42627;42.646;23.642;2023-04-15T01:54:53;5.22;;;2.33;;
56752;SDS011;42627;42.646;23.642;2023-04-15T01:56:59;4.95;;;2.10;;
56752;SDS011;42627;42.646;23.642;2023-04-15T01:59:13;3.50;;;1.90;;
56752;SDS011;42627;42.646;23.642;2023-04-15T02:01:26;3.25;;;2.10;;
56752;SDS011;42627;42.646;23.642;2023-04-15T02:32:43;3.95;;;1.67;;
56752;SDS011;42627;42.646;23.642;2023-04-15T02:34:45;4.68;;;1.83;;
56752;SDS011;42627;42.646;23.642;2023-04-15T02:36:46;4.22;;;1.63;;
56752;SDS011;42627;42.646;23.642;2023-04-15T02:38:48;5.63;;;2.05;;
56752;SDS011;42627;42.646;23.642;2023-04-15T02:40:49;5.97;;;2.45;;
56752;SDS011;42627;42.646;23.642;2023-04-15T02:42:50;4.75;;;2.15;;
56752;SDS011;42627;42.646;23.642;2023-04-15T02:44:51;7.75;;;3.42;;
56752;SDS011;42627;42.646;23.642;2023-04-15T02:46:55;4.53;;;2.55;;
56752;SDS011;42627;42.646;23.642;2023-04-15T02:48:57;4.18;;;1.77;;
56752;SDS011;42627;42.646;23.642;2023-04-15T02:53:15;5.93;;;2.10;;
56752;SDS011;42627;42.646;23.642;2023-04-15T02:55:16;13.32;;;4.78;;
56752;SDS011;42627;42.646;23.642;2023-04-15T03:02:08;4.32;;;2.53;;
56752;SDS011;42627;42.646;23.642;2023-04-15T03:04:09;4.80;;;2.92;;
56752;SDS011;42627;42.646;23.642;2023-04-15T03:06:10;6.80;;;2.88;;
56752;SDS011;42627;42.646;23.642;2023-04-15T03:08:11;6.00;;;2.25;;
56752;SDS011;42627;42.646;23.642;2023-04-15T03:10:14;3.50;;;1.40;;
56752;SDS011;42627;42.646;23.642;2023-04-15T03:12:14;4.93;;;1.98;;
56752;SDS011;42627;42.646;23.642;2023-04-15T03:14:16;2.65;;;1.45;;
56752;SDS011;42627;42.646;23.642;2023-04-15T03:16:26;2.90;;;1.23;;
56752;SDS011;42627;42.646;23.642;2023-04-15T03:18:27;4.20;;;1.52;;
56752;SDS011;42627;42.646;23.642;2023-04-15T03:20:28;1.92;;;1.17;;
56752;SDS011;42627;42.646;23.642;2023-04-15T03:22:30;3.63;;;1.40;;
56752;SDS011;42627;42.646;23.642;2023-04-15T03:24:31;3.33;;;1.40;;
56752;SDS011;42627;42.646;23.642;2023-04-15T03:29:06;3.42;;;1.27;;
56752;SDS011;42627;42.646;23.642;2023-04-15T03:31:13;3.92;;;1.55;;
56752;SDS011;42627;42.646;23.642;2023-04-15T03:33:14;2.50;;;1.60;;
56752;SDS011;42627;42.646;23.642;2023-04-15T03:35:15;2.90;;;1.35;;
56752;SDS011;42627;42.646;23.642;2023-04-15T03:37:16;3.00;;;1.27;;
56752;SDS011;42627;42.646;23.642;2023-04-15T03:39:17;3.95;;;1.30;;
56752;SDS011;42627;42.646;23.642;2023-04-15T03:41:18;5.22;;;1.35;;
56752;SDS011;42627;42.646;23.642;2023-04-15T03:43:19;2.05;;;1.52;;
56752;SDS011;42627;42.646;23.642;2023-04-15T03:45:26;3.10;;;1.60;;
56752;SDS011;42627;42.646;23.642;2023-04-15T03:47:27;3.60;;;1.65;;
56752;SDS011;42627;42.646;23.642;2023-04-15T03:49:28;7.35;;;1.63;;
56752;SDS011;42627;42.646;23.642;2023-04-15T03:51:29;4.97;;;2.67;;
56752;SDS011;42627;42.646;23.642;2023-04-15T03:53:30;4.20;;;2.10;;
56752;SDS011;42627;42.646;23.642;2023-04-15T03:55:46;8.07;;;3.47;;
56752;SDS011;42627;42.646;23.642;2023-04-15T04:02:41;8.90;;;3.67;;
56752;SDS011;42627;42.646;23.642;2023-04-15T04:16:14;9.77;;;5.20;;
56752;SDS011;42627;42.646;23.642;2023-04-15T04:18:15;12.10;;;5.13;;
56752;SDS011;42627;42.646;23.642;2023-04-15T04:20:16;8.68;;;4.70;;
56752;SDS011;42627;42.646;23.642;2023-04-15T04:22:20;11.25;;;4.82;;
56752;SDS011;42627;42.646;23.642;2023-04-15T04:24:22;15.68;;;6.63;;
56752;SDS011;42627;42.646;23.642;2023-04-15T04:28:57;14.25;;;7.05;;
56752;SDS011;42627;42.646;23.642;2023-04-15T04:33:05;5.60;;;2.22;;
56752;SDS011;42627;42.646;23.642;2023-04-15T04:35:07;4.47;;;2.08;;
56752;SDS011;42627;42.646;23.642;2023-04-15T04:37:08;4.30;;;1.90;;
56752;SDS011;42627;42.646;23.642;2023-04-15T04:39:09;3.55;;;1.63;;
56752;SDS011;42627;42.646;23.642;2023-04-15T04:41:10;3.97;;;2.00;;
56752;SDS011;42627;42.646;23.642;2023-04-15T04:43:11;7.25;;;3.47;;
56752;SDS011;42627;42.646;23.642;2023-04-15T05:00:57;9.13;;;3.60;;
56752;SDS011;42627;42.646;23.642;2023-04-15T05:02:58;7.38;;;3.22;;
56752;SDS011;42627;42.646;23.642;2023-04-15T05:04:59;11.15;;;5.55;;
56752;SDS011;42627;42.646;23.642;2023-04-15T05:07:00;10.27;;;5.57;;
56752;SDS011;42627;42.646;23.642;2023-04-15T05:09:02;8.35;;;4.70;;
56752;SDS011;42627;42.646;23.642;2023-04-15T05:11:03;9.70;;;4.07;;
56752;SDS011;42627;42.646;23.642;2023-04-15T05:13:04;7.07;;;3.53;;
56752;SDS011;42627;42.646;23.642;2023-04-15T05:15:10;10.40;;;3.50;;
56752;SDS011;42627;42.646;23.642;2023-04-15T05:17:11;6.00;;;3.35;;
56752;SDS011;42627;42.646;23.642;2023-04-15T05:19:12;5.72;;;2.70;;
56752;SDS011;42627;42.646;23.642;2023-04-15T05:21:13;4.70;;;2.45;;
56752;SDS011;42627;42.646;23.642;2023-04-15T05:23:14;5.95;;;3.00;;
56752;SDS011;42627;42.646;23.642;2023-04-15T05:30:09;4.90;;;1.95;;
56752;SDS011;42627;42.646;23.642;2023-04-15T05:32:10;4.25;;;1.88;;
56752;SDS011;42627;42.646;23.642;2023-04-15T05:34:11;6.70;;;3.10;;
56752;SDS011;42627;42.646;23.642;2023-04-15T05:36:14;9.23;;;3.47;;
56752;SDS011;42627;42.646;23.642;2023-04-15T05:38:15;5.05;;;2.40;;
56752;SDS011;42627;42.646;23.642;2023-04-15T05:40:16;4.30;;;2.20;;
56752;SDS011;42627;42.646;23.642;2023-04-15T05:42:17;3.97;;;1.85;;
56752;SDS011;42627;42.646;23.642;2023-04-15T05:44:27;6.07;;;2.60;;
56752;SDS011;42627;42.646;23.642;2023-04-15T05:46:28;5.80;;;2.50;;
56752;SDS011;42627;42.646;23.642;2023-04-15T05:48:29;5.45;;;2.40;;
56752;SDS011;42627;42.646;23.642;2023-04-15T05:50:30;3.95;;;1.88;;
56752;SDS011;42627;42.646;23.642;2023-04-15T05:52:31;3.63;;;1.80;;
56752;SDS011;42627;42.646;23.642;2023-04-15T05:57:36;19.67;;;5.65;;
56752;SDS011;42627;42.646;23.642;2023-04-15T05:59:40;5.90;;;2.83;;
56752;SDS011;42627;42.646;23.642;2023-04-15T06:01:41;4.13;;;2.03;;
56752;SDS011;42627;42.646;23.642;2023-04-15T06:03:42;3.03;;;1.60;;
56752;SDS011;42627;42.646;23.642;2023-04-15T06:05:43;3.83;;;1.60;;
56752;SDS011;42627;42.646;23.642;2023-04-15T06:07:44;4.93;;;1.45;;
56752;SDS011;42627;42.646;23.642;2023-04-15T06:09:45;2.92;;;1.50;;
56752;SDS011;42627;42.646;23.642;2023-04-15T06:11:47;3.50;;;1.77;;
56752;SDS011;42627;42.646;23.642;2023-04-15T06:13:53;4.78;;;2.05;;
56752;SDS011;42627;42.646;23.642;2023-04-15T06:15:55;3.65;;;1.92;;
56752;SDS011;42627;42.646;23.642;2023-04-15T06:17:56;6.18;;;1.67;;
56752;SDS011;42627;42.646;23.642;2023-04-15T06:19:57;3.05;;;1.73;;
56752;SDS011;42627;42.646;23.642;2023-04-15T06:21:58;5.32;;;2.10;;
56752;SDS011;42627;42.646;23.642;2023-04-15T06:28:51;3.05;;;1.35;;
56752;SDS011;42627;42.646;23.642;2023-04-15T06:59:12;3.28;;;1.58;;
56752;SDS011;42627;42.646;23.642;2023-04-15T07:01:13;4.47;;;1.50;;
56752;SDS011;42627;42.646;23.642;2023-04-15T07:03:14;6.13;;;1.80;;
56752;SDS011;42627;42.646;23.642;2023-04-15T07:05:15;3.00;;;1.40;;
56752;SDS011;42627;42.646;23.642;2023-04-15T07:07:18;3.70;;;1.15;;
56752;SDS011;42627;42.646;23.642;2023-04-15T07:09:19;2.88;;;1.42;;
56752;SDS011;42627;42.646;23.642;2023-04-15T07:11:19;3.45;;;1.65;;
56752;SDS011;42627;42.646;23.642;2023-04-15T07:13:26;2.35;;;1.30;;
56752;SDS011;42627;42.646;23.642;2023-04-15T07:15:27;4.45;;;1.63;;
56752;SDS011;42627;42.646;23.642;2023-04-15T07:17:28;3.50;;;1.65;;
56752;SDS011;42627;42.646;23.642;2023-04-15T07:19:29;2.47;;;1.30;;
56752;SDS011;42627;42.646;23.642;2023-04-15T07:21:30;3.00;;;1.67;;
56752;SDS011;42627;42.646;23.642;2023-04-15T07:23:40;4.28;;;1.50;;
56752;SDS011;42627;42.646;23.642;2023-04-15T07:30:39;2.38;;;1.00;;
56752;SDS011;42627;42.646;23.642;2023-04-15T07:32:40;5.32;;;1.25;;
56752;SDS011;42627;42.646;23.642;2023-04-15T07:45:35;3.15;;;1.20;;
56752;SDS011;42627;42.646;23.642;2023-04-15T07:47:36;2.70;;;1.15;;
56752;SDS011;42627;42.646;23.642;2023-04-15T07:49:37;2.58;;;0.80;;
56752;SDS011;42627;42.646;23.642;2023-04-15T07:51:38;3.60;;;1.00;;
56752;SDS011;42627;42.646;23.642;2023-04-15T07:58:34;0.85;;;0.70;;
56752;SDS011;42627;42.646;23.642;2023-04-15T08:00:35;2.22;;;0.85;;
56752;SDS011;42627;42.646;23.642;2023-04-15T08:02:37;2.55;;;1.15;;
56752;SDS011;42627;42.646;23.642;2023-04-15T08:04:39;2.45;;;0.93;;
56752;SDS011;42627;42.646;23.642;2023-04-15T08:06:40;3.03;;;0.70;;
56752;SDS011;42627;42.646;23.642;2023-04-15T08:08:41;2.47;;;0.77;;
56752;SDS011;42627;42.646;23.642;2023-04-15T08:10:45;2.33;;;0.60;;
56752;SDS011;42627;42.646;23.642;2023-04-15T08:14:57;4.80;;;1.23;;
56752;SDS011;42627;42.646;23.642;2023-04-15T08:16:58;2.00;;;1.15;;
56752;SDS011;42627;42.646;23.642;2023-04-15T08:18:59;1.65;;;0.80;;
56752;SDS011;42627;42.646;23.642;2023-04-15T08:21:00;1.65;;;0.75;;
56752;SDS011;42627;42.646;23.642;2023-04-15T08:23:06;2.72;;;0.73;;
56752;SDS011;42627;42.646;23.642;2023-04-15T08:25:22;2.08;;;0.60;;
56752;SDS011;42627;42.646;23.642;2023-04-15T08:40:30;2.63;;;0.60;;
56752;SDS011;42627;42.646;23.642;2023-04-15T08:58:16;1.15;;;0.50;;
56752;SDS011;42627;42.646;23.642;2023-04-15T09:00:18;1.63;;;0.55;;
56752;SDS011;42627;42.646;23.642;2023-04-15T09:02:20;1.35;;;0.68;;
56752;SDS011;42627;42.646;23.642;2023-04-15T09:04:21;0.70;;;0.50;;
56752;SDS011;42627;42.646;23.642;2023-04-15T09:06:22;0.95;;;0.52;;
56752;SDS011;42627;42.646;23.642;2023-04-15T09:08:23;3.22;;;0.57;;
56752;SDS011;42627;42.646;23.642;2023-04-15T09:10:24;1.30;;;0.68;;
56752;SDS011;42627;42.646;23.642;2023-04-15T09:17:58;1.63;;;0.70;;
56752;SDS011;42627;42.646;23.642;2023-04-15T09:22:11;1.27;;;0.40;;
56752;SDS011;42627;42.646;23.642;2023-04-15T09:24:12;1.38;;;0.73;;
56752;SDS011;42627;42.646;23.642;2023-04-15T09:26:13;3.70;;;0.90;;
56752;SDS011;42627;42.646;23.642;2023-04-15T09:28:22;2.10;;;0.90;;
56752;SDS011;42627;42.646;23.642;2023-04-15T09:30:25;1.10;;;0.40;;
56752;SDS011;42627;42.646;23.642;2023-04-15T09:34:37;1.65;;;0.50;;
56752;SDS011;42627;42.646;23.642;2023-04-15T09:38:55;3.10;;;0.70;;
56752;SDS011;42627;42.646;23.642;2023-04-15T09:40:56;2.67;;;0.57;;
56752;SDS011;42627;42.646;23.642;2023-04-15T09:45:48;2.35;;;0.50;;
56752;SDS011;42627;42.646;23.642;2023-04-15T09:48:19;1.77;;;0.73;;
56752;SDS011;42627;42.646;23.642;2023-04-15T09:50:21;1.00;;;0.45;;
56752;SDS011;42627;42.646;23.642;2023-04-15T09:52:22;2.60;;;0.75;;
56752;SDS011;42627;42.646;23.642;2023-04-15T09:54:23;1.40;;;0.90;;
56752;SDS011;42627;42.646;23.642;2023-04-15T09:56:24;3.33;;;0.50;;
56752;SDS011;42627;42.646;23.642;2023-04-15T09:58:32;0.80;;;0.43;;
56752;SDS011;42627;42.646;23.642;2023-04-15T10:00:34;0.93;;;0.68;;
56752;SDS011;42627;42.646;23.642;2023-04-15T10:02:41;0.88;;;0.60;;
56752;SDS011;42627;42.646;23.642;2023-04-15T10:04:42;1.15;;;0.43;;
56752;SDS011;42627;42.646;23.642;2023-04-15T10:06:44;0.63;;;0.47;;
56752;SDS011;42627;42.646;23.642;2023-04-15T10:08:45;1.85;;;0.63;;
56752;SDS011;42627;42.646;23.642;2023-04-15T10:10:47;2.38;;;0.65;;
56752;SDS011;42627;42.646;23.642;2023-04-15T10:13:03;2.17;;;0.70;;
56752;SDS011;42627;42.646;23.642;2023-04-15T10:17:43;1.60;;;0.60;;
56752;SDS011;42627;42.646;23.642;2023-04-15T10:19:44;5.63;;;0.90;;
56752;SDS011;42627;42.646;23.642;2023-04-15T10:21:45;1.50;;;0.35;;
56752;SDS011;42627;42.646;23.642;2023-04-15T10:23:46;0.68;;;0.55;;
56752;SDS011;42627;42.646;23.642;2023-04-15T10:25:48;0.90;;;0.38;;
56752;SDS011;42627;42.646;23.642;2023-04-15T10:27:49;4.00;;;0.60;;
56752;SDS011;42627;42.646;23.642;2023-04-15T10:29:51;1.73;;;0.60;;
56752;SDS011;42627;42.646;23.642;2023-04-15T10:31:55;5.28;;;0.70;;
56752;SDS011;42627;42.646;23.642;2023-04-15T10:33:57;3.22;;;0.50;;
56752;SDS011;42627;42.646;23.642;2023-04-15T10:36:02;0.50;;;0.30;;
56752;SDS011;42627;42.646;23.642;2023-04-15T10:47:22;0.65;;;0.50;;
56752;SDS011;42627;42.646;23.642;2023-04-15T10:49:24;1.05;;;0.50;;
56752;SDS011;42627;42.646;23.642;2023-04-15T10:51:26;0.98;;;0.80;;
56752;SDS011;42627;42.646;23.642;2023-04-15T10:53:28;0.98;;;0.50;;
56752;SDS011;42627;42.646;23.642;2023-04-15T10:55:33;1.58;;;0.50;;
56752;SDS011;42627;42.646;23.642;2023-04-15T10:57:34;1.13;;;0.50;;
56752;SDS011;42627;42.646;23.642;2023-04-15T10:59:38;1.35;;;0.50;;
56752;SDS011;42627;42.646;23.642;2023-04-15T11:02:02;1.60;;;0.47;;
56752;SDS011;42627;42.646;23.642;2023-04-15T11:17:08;1.70;;;0.50;;
56752;SDS011;42627;42.646;23.642;2023-04-15T11:19:09;0.60;;;0.30;;
56752;SDS011;42627;42.646;23.642;2023-04-15T11:21:10;1.17;;;0.47;;
56752;SDS011;42627;42.646;23.642;2023-04-15T11:23:12;0.82;;;0.50;;
56752;SDS011;42627;42.646;23.642;2023-04-15T11:25:26;2.58;;;0.50;;
56752;SDS011;42627;42.646;23.642;2023-04-15T11:27:29;2.30;;;0.70;;
56752;SDS011;42627;42.646;23.642;2023-04-15T11:29:30;1.25;;;0.40;;
56752;SDS011;42627;42.646;23.642;2023-04-15T11:31:37;2.75;;;0.50;;
56752;SDS011;42627;42.646;23.642;2023-04-15T11:33:43;5.68;;;0.98;;
56752;SDS011;42627;42.646;23.642;2023-04-15T11:35:45;0.93;;;0.50;;
56752;SDS011;42627;42.646;23.642;2023-04-15T11:37:46;0.75;;;0.43;;
56752;SDS011;42627;42.646;23.642;2023-04-15T11:39:48;2.05;;;0.52;;
56752;SDS011;42627;42.646;23.642;2023-04-15T11:46:50;3.25;;;1.00;;
56752;SDS011;42627;42.646;23.642;2023-04-15T11:48:52;3.47;;;0.60;;
56752;SDS011;42627;42.646;23.642;2023-04-15T11:50:57;3.15;;;0.57;;
56752;SDS011;42627;42.646;23.642;2023-04-15T11:53:02;4.60;;;0.70;;
56752;SDS011;42627;42.646;23.642;2023-04-15T11:55:03;2.95;;;1.60;;
56752;SDS011;42627;42.646;23.642;2023-04-15T11:57:04;2.40;;;0.82;;
56752;SDS011;42627;42.646;23.642;2023-04-15T11:59:05;1.13;;;0.50;;
56752;SDS011;42627;42.646;23.642;2023-04-15T12:01:06;1.17;;;0.38;;
56752;SDS011;42627;42.646;23.642;2023-04-15T12:03:18;1.95;;;0.60;;
56752;SDS011;42627;42.646;23.642;2023-04-15T12:05:20;2.83;;;0.55;;
56752;SDS011;42627;42.646;23.642;2023-04-15T12:07:21;2.13;;;1.10;;
56752;SDS011;42627;42.646;23.642;2023-04-15T12:09:22;0.90;;;0.60;;
56752;SDS011;42627;42.646;23.642;2023-04-15T12:16:34;1.25;;;0.50;;
56752;SDS011;42627;42.646;23.642;2023-04-15T12:18:36;1.92;;;0.65;;
56752;SDS011;42627;42.646;23.642;2023-04-15T12:20:43;0.45;;;0.30;;
56752;SDS011;42627;42.646;23.642;2023-04-15T12:22:44;0.35;;;0.32;;
56752;SDS011;42627;42.646;23.642;2023-04-15T12:24:46;1.85;;;0.60;;
56752;SDS011;42627;42.646;23.642;2023-04-15T12:26:49;1.88;;;0.80;;
56752;SDS011;42627;42.646;23.642;2023-04-15T12:29:09;1.50;;;0.40;;
56752;SDS011;42627;42.646;23.642;2023-04-15T12:31:21;0.85;;;0.40;;
56752;SDS011;42627;42.646;23.642;2023-04-15T12:33:22;0.90;;;0.45;;
56752;SDS011;42627;42.646;23.642;2023-04-15T12:35:23;4.18;;;1.58;;
56752;SDS011;42627;42.646;23.642;2023-04-15T12:37:24;1.48;;;0.63;;
56752;SDS011;42627;42.646;23.642;2023-04-15T12:39:34;1.92;;;0.93;;
56752;SDS011;42627;42.646;23.642;2023-04-15T12:44:39;1.02;;;0.63;;
56752;SDS011;42627;42.646;23.642;2023-04-15T12:46:40;1.42;;;0.30;;
56752;SDS011;42627;42.646;23.642;2023-04-15T12:48:41;2.72;;;0.60;;
56752;SDS011;42627;42.646;23.642;2023-04-15T12:50:42;2.15;;;0.60;;
56752;SDS011;42627;42.646;23.642;2023-04-15T12:52:43;1.75;;;0.52;;
56752;SDS011;42627;42.646;23.642;2023-04-15T12:54:44;0.80;;;0.50;;
56752;SDS011;42627;42.646;23.642;2023-04-15T12:56:46;2.55;;;0.60;;
56752;SDS011;42627;42.646;23.642;2023-04-15T13:05:40;1.70;;;0.50;;
56752;SDS011;42627;42.646;23.642;2023-04-15T13:07:41;14.80;;;1.42;;
56752;SDS011;42627;42.646;23.642;2023-04-15T13:12:17;7.78;;;0.80;;
56752;SDS011;42627;42.646;23.642;2023-04-15T13:14:24;1.40;;;0.52;;
56752;SDS011;42627;42.646;23.642;2023-04-15T13:16:26;1.65;;;0.70;;
56752;SDS011;42627;42.646;23.642;2023-04-15T13:18:27;2.30;;;0.40;;
56752;SDS011;42627;42.646;23.642;2023-04-15T13:20:30;2.97;;;0.50;;
56752;SDS011;42627;42.646;23.642;2023-04-15T13:22:31;1.00;;;0.47;;
56752;SDS011;42627;42.646;23.642;2023-04-15T13:24:32;2.92;;;0.50;;
56752;SDS011;42627;42.646;23.642;2023-04-15T13:26:33;4.60;;;0.55;;
56752;SDS011;42627;42.646;23.642;2023-04-15T13:30:45;0.63;;;0.40;;
56752;SDS011;42627;42.646;23.642;2023-04-15T13:32:48;0.40;;;0.40;;
56752;SDS011;42627;42.646;23.642;2023-04-15T13:34:49;0.88;;;0.60;;
56752;SDS011;42627;42.646;23.642;2023-04-15T13:36:50;1.65;;;0.40;;
56752;SDS011;42627;42.646;23.642;2023-04-15T13:38:56;1.30;;;0.43;;
56752;SDS011;42627;42.646;23.642;2023-04-15T13:43:46;0.30;;;0.30;;
56752;SDS011;42627;42.646;23.642;2023-04-15T13:45:47;2.67;;;0.50;;
56752;SDS011;42627;42.646;23.642;2023-04-15T13:47:48;1.38;;;0.55;;
56752;SDS011;42627;42.646;23.642;2023-04-15T13:49:49;1.13;;;0.45;;
56752;SDS011;42627;42.646;23.642;2023-04-15T13:51:51;3.58;;;0.45;;
56752;SDS011;42627;42.646;23.642;2023-04-15T13:53:52;0.73;;;0.47;;
56752;SDS011;42627;42.646;23.642;2023-04-15T13:55:53;1.83;;;0.63;;
56752;SDS011;42627;42.646;23.642;2023-04-15T14:15:21;0.98;;;0.65;;
56752;SDS011;42627;42.646;23.642;2023-04-15T14:17:22;0.77;;;0.40;;
56752;SDS011;42627;42.646;23.642;2023-04-15T14:19:24;0.95;;;0.35;;
56752;SDS011;42627;42.646;23.642;2023-04-15T14:21:25;2.95;;;0.68;;
56752;SDS011;42627;42.646;23.642;2023-04-15T14:23:31;0.50;;;0.35;;
56752;SDS011;42627;42.646;23.642;2023-04-15T14:25:32;1.02;;;0.50;;
56752;SDS011;42627;42.646;23.642;2023-04-15T14:27:42;1.13;;;0.40;;
56752;SDS011;42627;42.646;23.642;2023-04-15T14:29:43;0.57;;;0.50;;
56752;SDS011;42627;42.646;23.642;2023-04-15T14:31:44;2.08;;;0.50;;
56752;SDS011;42627;42.646;23.642;2023-04-15T14:33:45;1.13;;;0.50;;
56752;SDS011;42627;42.646;23.642;2023-04-15T14:35:48;1.90;;;0.50;;
56752;SDS011;42627;42.646;23.642;2023-04-15T14:37:54;1.15;;;0.50;;
56752;SDS011;42627;42.646;23.642;2023-04-15T14:42:21;1.85;;;0.50;;
56752;SDS011;42627;42.646;23.642;2023-04-15T14:44:22;1.65;;;0.47;;
56752;SDS011;42627;42.646;23.642;2023-04-15T14:46:24;3.30;;;0.70;;
56752;SDS011;42627;42.646;23.642;2023-04-15T14:48:25;2.65;;;0.50;;
56752;SDS011;42627;42.646;23.642;2023-04-15T14:50:26;1.13;;;0.50;;
56752;SDS011;42627;42.646;23.642;2023-04-15T14:52:27;1.38;;;0.38;;
56752;SDS011;42627;42.646;23.642;2023-04-15T14:54:28;1.95;;;0.35;;
56752;SDS011;42627;42.646;23.642;2023-04-15T14:56:29;1.42;;;0.45;;
56752;SDS011;42627;42.646;23.642;2023-04-15T14:58:34;1.92;;;0.50;;
56752;SDS011;42627;42.646;23.642;2023-04-15T15:00:35;2.15;;;0.40;;
56752;SDS011;42627;42.646;23.642;2023-04-15T15:02:38;6.68;;;0.55;;
56752;SDS011;42627;42.646;23.642;2023-04-15T15:04:39;1.73;;;0.55;;
56752;SDS011;42627;42.646;23.642;2023-04-15T15:06:40;1.02;;;0.52;;
56752;SDS011;42627;42.646;23.642;2023-04-15T15:13:28;0.60;;;0.35;;
56752;SDS011;42627;42.646;23.642;2023-04-15T15:22:19;1.20;;;0.50;;
56752;SDS011;42627;42.646;23.642;2023-04-15T15:43:58;0.98;;;0.50;;
56752;SDS011;42627;42.646;23.642;2023-04-15T15:46:00;1.10;;;0.30;;
56752;SDS011;42627;42.646;23.642;2023-04-15T15:48:01;0.28;;;0.22;;
56752;SDS011;42627;42.646;23.642;2023-04-15T15:50:02;1.58;;;0.38;;
56752;SDS011;42627;42.646;23.642;2023-04-15T15:52:03;1.50;;;0.40;;
56752;SDS011;42627;42.646;23.642;2023-04-15T15:54:05;1.13;;;0.40;;
56752;SDS011;42627;42.646;23.642;2023-04-15T15:56:06;0.30;;;0.25;;
56752;SDS011;42627;42.646;23.642;2023-04-15T15:58:12;0.88;;;0.40;;
56752;SDS011;42627;42.646;23.642;2023-04-15T16:00:14;2.10;;;0.63;;
56752;SDS011;42627;42.646;23.642;2023-04-15T16:02:15;2.33;;;0.40;;
56752;SDS011;42627;42.646;23.642;2023-04-15T16:04:16;2.65;;;0.63;;
56752;SDS011;42627;42.646;23.642;2023-04-15T16:06:17;1.45;;;0.40;;
56752;SDS011;42627;42.646;23.642;2023-04-15T16:10:38;0.68;;;0.40;;
56752;SDS011;42627;42.646;23.642;2023-04-15T16:12:49;2.42;;;0.65;;
56752;SDS011;42627;42.646;23.642;2023-04-15T16:14:50;2.42;;;0.65;;
56752;SDS011;42627;42.646;23.642;2023-04-15T16:16:52;1.20;;;0.50;;
56752;SDS011;42627;42.646;23.642;2023-04-15T16:18:53;2.72;;;0.80;;
56752;SDS011;42627;42.646;23.642;2023-04-15T16:20:54;1.48;;;0.70;;
56752;SDS011;42627;42.646;23.642;2023-04-15T16:22:55;3.40;;;1.02;;
56752;SDS011;42627;42.646;23.642;2023-04-15T16:24:57;2.50;;;0.80;;
56752;SDS011;42627;42.646;23.642;2023-04-15T16:29:10;3.13;;;0.50;;
56752;SDS011;42627;42.646;23.642;2023-04-15T16:31:11;2.88;;;0.70;;
56752;SDS011;42627;42.646;23.642;2023-04-15T16:33:14;1.70;;;0.60;;
56752;SDS011;42627;42.646;23.642;2023-04-15T16:35:18;2.15;;;0.70;;
56752;SDS011;42627;42.646;23.642;2023-04-15T16:37:34;3.75;;;0.70;;
56752;SDS011;42627;42.646;23.642;2023-04-15T16:40:02;1.23;;;0.70;;
56752;SDS011;42627;42.646;23.642;2023-04-15T16:42:08;7.88;;;1.20;;
56752;SDS011;42627;42.646;23.642;2023-04-15T16:44:12;2.47;;;0.60;;
56752;SDS011;42627;42.646;23.642;2023-04-15T16:46:13;2.05;;;0.60;;
56752;SDS011;42627;42.646;23.642;2023-04-15T16:48:32;1.58;;;0.57;;
56752;SDS011;42627;42.646;23.642;2023-04-15T16:50:53;1.13;;;0.50;;
56752;SDS011;42627;42.646;23.642;2023-04-15T16:52:54;2.33;;;0.60;;
56752;SDS011;42627;42.646;23.642;2023-04-15T16:54:55;1.42;;;0.70;;
56752;SDS011;42627;42.646;23.642;2023-04-15T17:08:08;20.42;;;6.68;;
56752;SDS011;42627;42.646;23.642;2023-04-15T17:12:23;25.60;;;12.00;;
56752;SDS011;42627;42.646;23.642;2023-04-15T17:14:24;27.00;;;13.43;;
56752;SDS011;42627;42.646;23.642;2023-04-15T17:16:25;32.80;;;16.52;;
56752;SDS011;42627;42.646;23.642;2023-04-15T17:18:26;21.77;;;14.00;;
56752;SDS011;42627;42.646;23.642;2023-04-15T17:20:27;32.03;;;21.48;;
56752;SDS011;42627;42.646;23.642;2023-04-15T17:22:28;22.33;;;13.57;;
56752;SDS011;42627;42.646;23.642;2023-04-15T17:24:29;14.82;;;8.63;;
56752;SDS011;42627;42.646;23.642;2023-04-15T17:26:35;17.73;;;8.35;;
56752;SDS011;42627;42.646;23.642;2023-04-15T17:28:36;10.20;;;6.20;;
56752;SDS011;42627;42.646;23.642;2023-04-15T17:30:38;8.20;;;4.65;;
56752;SDS011;42627;42.646;23.642;2023-04-15T17:32:39;10.68;;;4.40;;
56752;SDS011;42627;42.646;23.642;2023-04-15T17:34:40;14.32;;;6.53;;
56752;SDS011;42627;42.646;23.642;2023-04-15T17:41:34;24.13;;;9.07;;
56752;SDS011;42627;42.646;23.642;2023-04-15T17:43:35;22.73;;;10.20;;
56752;SDS011;42627;42.646;23.642;2023-04-15T17:45:39;26.23;;;11.30;;
56752;SDS011;42627;42.646;23.642;2023-04-15T17:47:42;25.33;;;11.15;;
56752;SDS011;42627;42.646;23.642;2023-04-15T17:49:44;23.40;;;10.68;;